createdAt,value
2018-12-10T00:02:12.840Z,7.40
2018-12-10T00:04:40.707Z,7.40
2018-12-10T00:07:08.573Z,7.40
2018-12-10T00:09:37.171Z,7.30
2018-12-10T00:12:05.119Z,7.30
2018-12-10T00:14:33.792Z,7.20
2018-12-10T00:17:01.652Z,7.20
2018-12-10T00:19:29.604Z,7.10
2018-12-10T00:21:57.422Z,7.20
2018-12-10T00:24:25.217Z,7.20
2018-12-10T00:26:53.101Z,7.10
2018-12-10T00:29:21.911Z,7.10
2018-12-10T00:31:50.639Z,7.10
2018-12-10T00:34:20.450Z,7.00
2018-12-10T00:36:48.169Z,7.00
2018-12-10T00:39:17.509Z,6.90
2018-12-10T00:41:46.414Z,6.80
2018-12-10T00:44:14.247Z,6.80
2018-12-10T00:46:42.130Z,6.70
2018-12-10T00:49:10.000Z,6.70
2018-12-10T00:51:37.776Z,6.60
2018-12-10T00:54:05.484Z,6.60
2018-12-10T00:56:33.282Z,6.60
2018-12-10T00:59:01.924Z,6.50
2018-12-10T01:01:30.393Z,6.50
2018-12-10T01:03:58.214Z,6.40
2018-12-10T01:06:26.886Z,6.50
2018-12-10T01:08:54.733Z,6.50
2018-12-10T01:11:22.506Z,6.50
2018-12-10T01:13:50.327Z,6.40
2018-12-10T01:16:18.030Z,6.40
2018-12-10T01:18:45.770Z,6.40
2018-12-10T01:21:13.590Z,6.40
2018-12-10T01:23:41.437Z,6.40
2018-12-10T01:26:09.240Z,6.40
2018-12-10T01:28:36.984Z,6.40
2018-12-10T01:31:04.949Z,6.30
2018-12-10T01:33:33.694Z,6.30
2018-12-10T01:36:01.444Z,6.20
2018-12-10T01:38:29.286Z,6.20
2018-12-10T01:40:57.066Z,6.30
2018-12-10T01:43:25.636Z,6.20
2018-12-10T01:45:53.355Z,6.30
2018-12-10T01:48:21.075Z,6.30
2018-12-10T01:50:49.719Z,6.30
2018-12-10T01:53:18.444Z,6.40
2018-12-10T01:55:46.243Z,6.40
2018-12-10T01:58:13.961Z,6.30
2018-12-10T02:00:41.709Z,6.30
2018-12-10T02:03:09.547Z,6.30
2018-12-10T02:05:37.281Z,6.20
2018-12-10T02:08:05.134Z,6.10
2018-12-10T02:10:32.923Z,6.20
2018-12-10T02:13:00.738Z,6.20
2018-12-10T02:15:28.410Z,6.30
2018-12-10T02:17:56.194Z,6.30
2018-12-10T02:20:23.914Z,6.30
2018-12-10T02:22:51.633Z,6.30
2018-12-10T02:25:19.368Z,6.30
2018-12-10T02:27:47.201Z,6.30
2018-12-10T02:30:14.959Z,6.30
2018-12-10T02:32:42.747Z,6.30
2018-12-10T02:35:10.514Z,6.40
2018-12-10T02:37:38.213Z,6.40
2018-12-10T02:40:07.226Z,6.40
2018-12-10T02:42:35.007Z,6.40
2018-12-10T02:45:02.795Z,6.40
2018-12-10T02:47:31.494Z,6.40
2018-12-10T02:49:59.218Z,6.40
2018-12-10T02:52:27.127Z,6.30
2018-12-10T02:54:54.900Z,6.30
2018-12-10T02:57:22.717Z,6.30
2018-12-10T02:59:50.513Z,6.30
2018-12-10T03:02:19.138Z,6.30
2018-12-10T03:04:47.320Z,6.30
2018-12-10T03:07:15.076Z,6.30
2018-12-10T03:09:42.894Z,6.30
2018-12-10T03:12:10.754Z,6.30
2018-12-10T03:14:38.537Z,6.30
2018-12-10T03:17:06.518Z,6.30
2018-12-10T03:19:34.265Z,6.30
2018-12-10T03:22:02.139Z,6.30
2018-12-10T03:24:30.069Z,6.40
2018-12-10T03:26:57.925Z,6.40
2018-12-10T03:29:25.698Z,6.40
2018-12-10T03:31:53.636Z,6.30
2018-12-10T03:34:21.395Z,6.30
2018-12-10T03:36:49.112Z,6.30
2018-12-10T03:39:16.896Z,6.30
2018-12-10T03:41:44.603Z,6.20
2018-12-10T03:44:12.383Z,6.20
2018-12-10T03:46:40.096Z,6.20
2018-12-10T03:49:07.965Z,6.20
2018-12-10T03:51:35.835Z,6.20
2018-12-10T03:54:05.406Z,6.20
2018-12-10T03:56:33.153Z,6.10
2018-12-10T03:59:01.190Z,6.10
2018-12-10T04:01:28.923Z,6.10
2018-12-10T04:03:56.903Z,6.10
2018-12-10T04:06:24.723Z,6.10
2018-12-10T04:08:53.298Z,6.00
2018-12-10T04:11:21.072Z,6.10
2018-12-10T04:13:48.875Z,6.10
2018-12-10T04:16:17.524Z,6.10
2018-12-10T04:18:45.360Z,6.10
2018-12-10T04:21:13.177Z,6.10
2018-12-10T04:23:41.865Z,6.10
2018-12-10T04:26:10.253Z,6.10
2018-12-10T04:28:37.980Z,6.10
2018-12-10T04:31:05.987Z,6.20
2018-12-10T04:33:37.787Z,6.10
2018-12-10T04:36:05.519Z,6.20
2018-12-10T04:38:34.119Z,6.10
2018-12-10T04:41:01.799Z,6.10
2018-12-10T04:43:29.599Z,6.10
2018-12-10T04:45:57.425Z,6.10
2018-12-10T04:48:25.950Z,6.10
2018-12-10T04:50:53.730Z,6.00
2018-12-10T04:53:21.505Z,6.00
2018-12-10T04:55:49.278Z,6.10
2018-12-10T04:58:17.101Z,6.00
2018-12-10T05:00:44.939Z,6.00
2018-12-10T05:03:12.678Z,6.00
2018-12-10T05:05:40.559Z,6.00
2018-12-10T05:08:08.294Z,6.10
2018-12-10T05:10:36.056Z,6.10
2018-12-10T05:13:03.799Z,6.10
2018-12-10T05:15:31.626Z,6.10
2018-12-10T05:17:59.375Z,6.10
2018-12-10T05:20:27.247Z,6.10
2018-12-10T05:22:54.971Z,6.10
2018-12-10T05:25:22.742Z,6.10
2018-12-10T05:27:51.194Z,6.10
2018-12-10T05:30:18.998Z,6.00
2018-12-10T05:32:46.859Z,6.00
2018-12-10T05:35:14.802Z,6.00
2018-12-10T05:37:43.036Z,6.00
2018-12-10T05:40:10.922Z,6.00
2018-12-10T05:42:38.728Z,6.00
2018-12-10T05:45:08.258Z,6.00
2018-12-10T05:47:36.057Z,5.90
2018-12-10T05:50:04.862Z,5.90
2018-12-10T05:52:32.677Z,5.90
2018-12-10T05:55:00.477Z,5.80
2018-12-10T05:57:28.290Z,5.80
2018-12-10T05:59:56.764Z,5.80
2018-12-10T06:02:24.716Z,5.80
2018-12-10T06:04:52.514Z,5.80
2018-12-10T06:07:20.333Z,5.80
2018-12-10T06:09:48.116Z,5.70
2018-12-10T06:12:15.806Z,5.70
2018-12-10T06:14:43.634Z,5.60
2018-12-10T06:17:12.348Z,5.50
2018-12-10T06:19:40.111Z,5.50
2018-12-10T06:22:07.972Z,5.50
2018-12-10T06:24:35.735Z,5.50
2018-12-10T06:27:03.602Z,5.50
2018-12-10T06:29:31.510Z,5.40
2018-12-10T06:31:59.256Z,5.40
2018-12-10T06:34:35.603Z,5.30
2018-12-10T06:37:03.538Z,5.40
2018-12-10T06:39:31.345Z,5.50
2018-12-10T06:41:59.913Z,5.50
2018-12-10T06:44:27.755Z,5.50
2018-12-10T06:46:56.461Z,5.40
2018-12-10T06:49:24.217Z,5.40
2018-12-10T06:51:53.285Z,5.40
2018-12-10T06:54:21.050Z,5.40
2018-12-10T06:56:48.954Z,5.50
2018-12-10T06:59:18.324Z,5.50
2018-12-10T07:01:46.993Z,5.50
2018-12-10T07:04:14.868Z,5.60
2018-12-10T07:06:42.890Z,5.60
2018-12-10T07:09:11.445Z,5.60
2018-12-10T07:11:39.317Z,5.60
2018-12-10T07:14:07.055Z,5.60
2018-12-10T07:16:34.829Z,5.60
2018-12-10T07:19:03.389Z,5.60
2018-12-10T07:21:31.128Z,5.60
2018-12-10T07:23:58.942Z,5.60
2018-12-10T07:26:26.665Z,5.60
2018-12-10T07:29:01.976Z,5.70
2018-12-10T07:31:32.350Z,5.70
2018-12-10T07:34:01.463Z,5.70
2018-12-10T07:36:30.190Z,5.70
2018-12-10T07:38:57.903Z,5.70
2018-12-10T07:41:26.400Z,5.70
2018-12-10T07:43:54.192Z,5.70
2018-12-10T07:46:21.916Z,5.70
2018-12-10T07:48:49.986Z,5.60
2018-12-10T07:51:19.075Z,5.60
2018-12-10T07:53:46.857Z,5.70
2018-12-10T07:56:14.752Z,5.80
2018-12-10T07:58:42.770Z,5.80
2018-12-10T08:01:12.172Z,5.90
2018-12-10T08:03:40.136Z,5.90
2018-12-10T08:06:08.119Z,5.90
2018-12-10T08:08:35.890Z,5.90
2018-12-10T08:11:03.792Z,5.90
2018-12-10T08:13:32.389Z,5.90
2018-12-10T08:16:00.312Z,6.00
2018-12-10T08:18:28.140Z,5.90
2018-12-10T08:21:02.147Z,6.00
2018-12-10T08:23:25.706Z,5.90
2018-12-10T08:25:53.542Z,5.90
2018-12-10T08:28:21.448Z,6.00
2018-12-10T08:30:49.327Z,6.00
2018-12-10T08:33:17.021Z,5.90
2018-12-10T08:35:44.926Z,5.80
2018-12-10T08:38:12.707Z,5.90
2018-12-10T08:40:40.577Z,5.90
2018-12-10T08:43:08.438Z,5.90
2018-12-10T08:45:36.228Z,6.00
2018-12-10T08:48:04.266Z,6.10
2018-12-10T08:50:32.642Z,6.10
2018-12-10T08:53:01.724Z,6.20
2018-12-10T08:55:30.957Z,6.20
2018-12-10T08:57:59.041Z,6.20
2018-12-10T09:00:27.581Z,6.20
2018-12-10T09:02:55.771Z,6.30
2018-12-10T09:05:23.717Z,6.30
2018-12-10T09:07:52.683Z,6.20
2018-12-10T09:10:21.122Z,6.30
2018-12-10T09:12:49.681Z,6.30
2018-12-10T09:15:17.606Z,6.40
2018-12-10T09:17:45.501Z,6.40
2018-12-10T09:20:14.032Z,6.40
2018-12-10T09:22:42.942Z,6.40
2018-12-10T09:25:12.644Z,6.40
2018-12-10T09:27:49.374Z,6.50
2018-12-10T09:30:19.943Z,6.50
2018-12-10T09:32:48.018Z,6.60
2018-12-10T09:35:15.640Z,6.50
2018-12-10T09:37:43.246Z,6.50
2018-12-10T09:40:11.003Z,6.60
2018-12-10T09:42:38.973Z,6.60
2018-12-10T09:45:06.999Z,6.60
2018-12-10T09:47:34.632Z,6.50
2018-12-10T09:50:02.354Z,6.50
2018-12-10T09:52:29.967Z,6.60
2018-12-10T09:54:57.681Z,6.60
2018-12-10T09:57:25.295Z,6.60
2018-12-10T09:59:53.088Z,6.60
2018-12-10T10:02:20.710Z,6.60
2018-12-10T10:04:48.333Z,6.60
2018-12-10T10:07:15.969Z,6.60
2018-12-10T10:09:43.829Z,6.70
2018-12-10T10:12:11.448Z,6.80
2018-12-10T10:14:39.389Z,6.80
2018-12-10T10:17:07.033Z,6.80
2018-12-10T10:19:34.732Z,6.80
2018-12-10T10:22:02.516Z,6.70
2018-12-10T10:24:30.329Z,6.70
2018-12-10T10:26:58.141Z,6.70
2018-12-10T10:29:26.143Z,6.70
2018-12-10T10:31:53.803Z,6.80
2018-12-10T10:34:21.364Z,7.10
2018-12-10T10:36:48.979Z,7.30
2018-12-10T10:39:16.562Z,7.20
2018-12-10T10:41:44.298Z,7.10
2018-12-10T10:44:11.905Z,6.90
2018-12-10T10:46:39.504Z,6.90
2018-12-10T10:49:07.310Z,7.00
2018-12-10T10:51:35.005Z,7.10
2018-12-10T10:54:02.837Z,7.10
2018-12-10T10:56:30.535Z,7.20
2018-12-10T10:58:58.574Z,7.30
2018-12-10T11:04:37.728Z,7.50
2018-12-10T11:07:04.788Z,7.50
2018-12-10T11:09:32.588Z,7.60
2018-12-10T11:12:00.459Z,7.80
2018-12-10T11:14:36.584Z,7.90
2018-12-10T11:17:04.609Z,7.90
2018-12-10T11:19:32.535Z,7.80
2018-12-10T11:22:03.736Z,8.20
2018-12-10T11:24:32.950Z,8.20
2018-12-10T11:27:00.899Z,8.00
2018-12-10T11:29:29.091Z,8.00
2018-12-10T11:31:58.021Z,8.30
2018-12-10T11:34:25.933Z,8.40
2018-12-10T11:36:53.888Z,8.60
2018-12-10T11:39:21.747Z,9.20
2018-12-10T11:41:50.356Z,9.20
2018-12-10T11:47:13.568Z,8.70
2018-12-10T11:49:41.349Z,8.40
2018-12-10T11:52:09.276Z,8.30
2018-12-10T11:54:37.031Z,8.60
2018-12-10T11:57:04.906Z,9.00
2018-12-10T11:59:33.513Z,8.90
2018-12-10T12:02:01.412Z,8.60
2018-12-10T12:04:32.033Z,8.40
2018-12-10T12:07:05.289Z,8.10
2018-12-10T12:09:34.229Z,8.00
2018-12-10T12:12:02.856Z,7.90
2018-12-10T12:14:35.918Z,7.80
2018-12-10T12:17:03.764Z,7.70
2018-12-10T12:19:32.818Z,7.60
2018-12-10T12:22:04.918Z,7.60
2018-12-10T12:24:30.847Z,7.50
2018-12-10T12:26:59.600Z,7.30
2018-12-10T12:29:27.390Z,7.30
2018-12-10T12:32:04.422Z,7.20
2018-12-10T12:34:36.367Z,7.10
2018-12-10T12:37:04.205Z,7.20
2018-12-10T12:39:32.533Z,7.30
2018-12-10T12:42:00.914Z,7.30
2018-12-10T12:44:32.500Z,7.40
2018-12-10T12:47:00.873Z,7.90
2018-12-10T12:49:28.879Z,7.70
2018-12-10T12:52:00.362Z,7.50
2018-12-10T12:54:28.499Z,7.40
2018-12-10T12:56:56.395Z,7.40
2018-12-10T12:59:28.489Z,7.50
2018-12-10T13:01:56.400Z,7.50
2018-12-10T13:04:26.321Z,7.50
2018-12-10T13:06:57.301Z,7.50
2018-12-10T13:09:26.667Z,7.40
2018-12-10T13:11:55.427Z,7.50
2018-12-10T13:14:24.894Z,7.50
2018-12-10T13:16:53.965Z,7.50
2018-12-10T13:19:21.731Z,7.60
2018-12-10T13:21:49.555Z,7.60
2018-12-10T13:24:22.363Z,7.70
2018-12-10T13:26:51.129Z,7.70
2018-12-10T13:29:20.406Z,7.70
2018-12-10T13:31:49.171Z,7.60
2018-12-10T13:34:17.706Z,7.60
2018-12-10T13:36:45.587Z,7.70
2018-12-10T13:39:13.412Z,7.70
2018-12-10T13:41:41.217Z,7.60
2018-12-10T13:44:09.181Z,7.60
2018-12-10T13:46:37.131Z,7.60
2018-12-10T13:49:05.534Z,7.50
2018-12-10T13:51:33.605Z,7.60
2018-12-10T13:54:03.214Z,7.50
2018-12-10T13:56:31.518Z,7.50
2018-12-10T13:59:01.675Z,7.50
2018-12-10T14:01:30.801Z,7.50
2018-12-10T14:03:59.241Z,7.40
2018-12-10T14:06:27.149Z,7.40
2018-12-10T14:08:55.122Z,7.40
2018-12-10T14:11:24.186Z,7.40
2018-12-10T14:14:12.575Z,7.40
2018-12-10T14:16:45.527Z,7.40
2018-12-10T14:19:13.977Z,7.30
2018-12-10T14:21:42.081Z,7.30
2018-12-10T14:24:13.484Z,7.30
2018-12-10T14:26:42.888Z,7.30
2018-12-10T14:29:12.181Z,7.30
2018-12-10T14:31:40.270Z,7.20
2018-12-10T14:34:14.055Z,7.30
2018-12-10T14:36:41.870Z,7.20
2018-12-10T14:39:10.240Z,7.20
2018-12-10T14:41:38.366Z,7.20
2018-12-10T14:44:07.491Z,7.20
2018-12-10T14:46:38.743Z,7.20
2018-12-10T14:49:07.075Z,7.30
2018-12-10T14:51:35.992Z,7.20
2018-12-10T14:54:05.271Z,7.20
2018-12-10T14:56:33.338Z,7.20
2018-12-10T14:59:04.106Z,7.20
2018-12-10T15:01:31.990Z,7.20
2018-12-10T15:04:02.885Z,7.30
2018-12-10T15:06:32.294Z,7.20
2018-12-10T15:09:00.756Z,7.30
2018-12-10T15:11:28.868Z,7.30
2018-12-10T15:13:57.445Z,7.30
2018-12-10T15:16:25.344Z,7.30
2018-12-10T15:18:53.735Z,7.30
2018-12-10T15:21:22.602Z,7.30
2018-12-10T15:23:52.920Z,7.30
2018-12-10T15:26:20.805Z,7.20
2018-12-10T15:28:48.918Z,7.30
2018-12-10T15:31:22.818Z,7.20
2018-12-10T15:34:04.469Z,7.20
2018-12-10T15:36:35.811Z,7.20
2018-12-10T15:39:06.324Z,7.30
2018-12-10T15:41:37.609Z,7.20
2018-12-10T15:44:07.932Z,7.20
2018-12-10T15:46:36.040Z,7.20
2018-12-10T15:49:04.510Z,7.30
2018-12-10T15:51:33.382Z,7.20
2018-12-10T15:54:02.198Z,7.20
2018-12-10T15:56:31.176Z,7.30
2018-12-10T15:58:59.180Z,7.20
2018-12-10T16:01:28.940Z,7.20
2018-12-10T16:03:57.400Z,7.20
2018-12-10T16:06:25.518Z,7.10
2018-12-10T16:08:53.747Z,7.10
2018-12-10T16:11:21.783Z,7.10
2018-12-10T16:13:53.269Z,7.10
2018-12-10T16:16:21.107Z,7.10
2018-12-10T16:18:48.924Z,7.00
2018-12-10T16:21:16.863Z,7.00
2018-12-10T16:23:44.762Z,7.00
2018-12-10T16:26:12.843Z,7.10
2018-12-10T16:28:40.899Z,7.10
2018-12-10T16:31:08.938Z,7.00
2018-12-10T16:33:37.181Z,7.00
2018-12-10T16:36:05.161Z,7.00
2018-12-10T16:38:33.627Z,6.90
2018-12-10T16:41:02.620Z,7.00
2018-12-10T16:43:30.582Z,7.00
2018-12-10T16:45:58.684Z,7.00
2018-12-10T16:48:26.673Z,6.90
2018-12-10T16:50:54.510Z,6.90
2018-12-10T16:53:22.460Z,6.80
2018-12-10T16:55:51.892Z,6.90
2018-12-10T16:58:19.672Z,6.90
2018-12-10T17:00:47.552Z,6.90
2018-12-10T17:03:16.543Z,6.90
2018-12-10T17:05:46.074Z,7.00
2018-12-10T17:08:14.237Z,7.00
2018-12-10T17:10:42.206Z,7.00
2018-12-10T17:13:10.168Z,7.00
2018-12-10T17:15:39.429Z,7.00
2018-12-10T17:18:07.264Z,6.90
2018-12-10T17:20:35.367Z,7.00
2018-12-10T17:23:03.311Z,7.00
2018-12-10T17:25:31.157Z,6.90
2018-12-10T17:27:59.619Z,7.00
2018-12-10T17:30:27.947Z,6.90
2018-12-10T17:32:56.204Z,6.90
2018-12-10T17:35:24.075Z,6.90
2018-12-10T17:37:52.046Z,6.90
2018-12-10T17:40:20.993Z,7.00
2018-12-10T17:42:48.831Z,7.00
2018-12-10T17:45:17.190Z,7.00
2018-12-10T17:47:45.270Z,6.90
2018-12-10T17:50:13.631Z,6.90
2018-12-10T17:52:41.569Z,7.00
2018-12-10T17:55:09.643Z,6.90
2018-12-10T17:57:40.519Z,6.90
2018-12-10T18:00:09.399Z,6.90
2018-12-10T18:02:37.689Z,6.90
2018-12-10T18:05:05.855Z,6.90
2018-12-10T18:07:33.620Z,6.80
2018-12-10T18:10:01.416Z,6.60
2018-12-10T18:12:29.311Z,6.30
2018-12-10T18:14:57.168Z,6.10
2018-12-10T18:17:25.028Z,6.00
2018-12-10T18:19:53.483Z,5.90
2018-12-10T18:22:21.361Z,5.90
2018-12-10T18:24:49.997Z,5.90
2018-12-10T18:27:17.874Z,5.70
2018-12-10T18:29:46.497Z,5.70
2018-12-10T18:32:14.336Z,5.60
2018-12-10T18:34:42.594Z,5.50
2018-12-10T18:37:10.386Z,5.50
2018-12-10T18:39:38.292Z,5.40
2018-12-10T18:42:06.135Z,5.30
2018-12-10T18:44:33.980Z,5.20
2018-12-10T18:47:02.403Z,5.20
2018-12-10T18:49:30.234Z,5.20
2018-12-10T18:51:58.549Z,5.20
2018-12-10T18:54:26.324Z,5.20
2018-12-10T18:56:54.192Z,5.10
2018-12-10T18:59:21.984Z,5.00
2018-12-10T19:01:50.654Z,4.90
2018-12-10T19:04:18.541Z,4.70
2018-12-10T19:06:47.234Z,4.70
2018-12-10T19:09:15.298Z,4.80
2018-12-10T19:11:43.073Z,4.70
2018-12-10T19:14:11.188Z,4.70
2018-12-10T19:16:39.022Z,4.70
2018-12-10T19:19:06.841Z,4.70
2018-12-10T19:21:34.686Z,4.80
2018-12-10T19:24:02.678Z,4.70
2018-12-10T19:26:30.606Z,4.70
2018-12-10T19:28:58.383Z,4.70
2018-12-10T19:31:27.523Z,4.70
2018-12-10T19:33:55.314Z,4.70
2018-12-10T19:36:24.306Z,4.80
2018-12-10T19:38:52.182Z,4.80
2018-12-10T19:41:20.040Z,4.80
2018-12-10T19:43:47.963Z,4.80
2018-12-10T19:46:16.059Z,4.90
2018-12-10T19:48:43.839Z,4.90
2018-12-10T19:51:11.803Z,4.90
2018-12-10T19:53:40.560Z,4.90
2018-12-10T19:56:08.517Z,4.70
2018-12-10T19:58:36.891Z,4.60
2018-12-10T20:01:04.923Z,4.60
2018-12-10T20:03:33.223Z,4.60
2018-12-10T20:06:07.776Z,4.60
2018-12-10T20:08:36.818Z,4.50
2018-12-10T20:11:04.703Z,4.40
2018-12-10T20:13:32.798Z,4.50
2018-12-10T20:16:03.279Z,4.50
2018-12-10T20:18:31.717Z,4.50
2018-12-10T20:20:59.784Z,4.50
2018-12-10T20:23:28.006Z,4.60
2018-12-10T20:25:56.355Z,4.70
2018-12-10T20:28:24.556Z,4.70
2018-12-10T20:30:52.546Z,4.80
2018-12-10T20:33:21.089Z,4.80
2018-12-10T20:35:49.294Z,4.80
2018-12-10T20:38:17.367Z,4.80
2018-12-10T20:40:45.494Z,4.90
2018-12-10T20:43:13.643Z,4.90
2018-12-10T20:45:41.567Z,4.80
2018-12-10T20:48:09.680Z,4.70
2018-12-10T20:50:37.958Z,4.80
2018-12-10T20:53:07.198Z,4.80
2018-12-10T20:55:35.019Z,4.70
2018-12-10T20:58:03.327Z,4.70
2018-12-10T21:00:31.740Z,4.70
2018-12-10T21:02:59.885Z,4.70
2018-12-10T21:05:28.016Z,4.70
2018-12-10T21:07:56.260Z,4.70
2018-12-10T21:10:24.298Z,4.70
2018-12-10T21:12:52.754Z,4.70
2018-12-10T21:15:20.553Z,4.70
2018-12-10T21:17:48.637Z,4.60
2018-12-10T21:20:16.695Z,4.60
2018-12-10T21:22:44.788Z,4.70
2018-12-10T21:25:13.397Z,4.70
2018-12-10T21:27:41.642Z,4.70
2018-12-10T21:30:09.530Z,4.70
2018-12-10T21:32:38.589Z,4.70
2018-12-10T21:35:07.492Z,4.70
2018-12-10T21:37:35.698Z,4.50
2018-12-10T21:40:04.427Z,4.50
2018-12-10T21:42:38.693Z,4.50
2018-12-10T21:45:02.517Z,4.40
2018-12-10T21:47:30.374Z,4.50
2018-12-10T21:49:59.118Z,4.40
2018-12-10T21:52:27.142Z,4.30
2018-12-10T21:54:55.222Z,4.30
2018-12-10T21:57:24.176Z,4.30
2018-12-10T21:59:52.506Z,4.30
2018-12-10T22:02:20.894Z,4.30
2018-12-10T22:04:49.119Z,4.40
2018-12-10T22:07:17.507Z,4.30
2018-12-10T22:09:46.974Z,4.30
2018-12-10T22:12:15.141Z,4.30
2018-12-10T22:14:43.312Z,4.40
2018-12-10T22:17:11.346Z,4.50
2018-12-10T22:19:39.445Z,4.60
2018-12-10T22:22:07.610Z,4.70
2018-12-10T22:24:35.730Z,4.60
2018-12-10T22:27:03.947Z,4.70
2018-12-10T22:29:31.911Z,4.80
2018-12-10T22:31:59.933Z,4.70
2018-12-10T22:34:27.803Z,4.80
2018-12-10T22:36:56.305Z,4.60
2018-12-10T22:39:24.553Z,4.50
2018-12-10T22:41:52.863Z,4.50
2018-12-10T22:44:20.953Z,4.50
2018-12-10T22:46:49.289Z,4.60
2018-12-10T22:49:17.535Z,4.60
2018-12-10T22:51:45.646Z,4.60
2018-12-10T22:54:15.267Z,4.70
2018-12-10T22:56:45.956Z,4.70
2018-12-10T22:59:14.948Z,4.70
2018-12-10T23:01:43.103Z,4.70
2018-12-10T23:04:11.247Z,4.80
2018-12-10T23:06:39.382Z,4.80
2018-12-10T23:09:07.626Z,4.90
2018-12-10T23:11:35.908Z,4.90
2018-12-10T23:14:04.959Z,4.90
2018-12-10T23:16:33.162Z,4.90
2018-12-10T23:19:02.367Z,4.80
2018-12-10T23:21:30.720Z,5.00
2018-12-10T23:23:58.808Z,4.90
2018-12-10T23:26:28.009Z,4.80
2018-12-10T23:28:56.150Z,4.90
2018-12-10T23:31:24.330Z,4.90
2018-12-10T23:33:52.853Z,4.80
2018-12-10T23:36:21.036Z,4.80
2018-12-10T23:38:49.372Z,4.80
2018-12-10T23:41:17.364Z,4.80
2018-12-10T23:43:45.647Z,4.80
2018-12-10T23:46:14.798Z,4.70
2018-12-10T23:48:43.298Z,4.80
2018-12-10T23:51:12.296Z,4.80
2018-12-10T23:53:40.512Z,4.80
2018-12-10T23:56:08.743Z,4.90
2018-12-10T23:58:36.786Z,4.80
